Terminal Aerodrome Forecast
Issued by NWS

Home | Current Version | Previous Version | Text Only | Print | Product List | Glossary On
Versions: 1 2 3 4 5 6 7 8 9 10 11 12 13 14 15 16 17 18 19 20 21 22 23 24 25 26 27 28 29 30 31 32 33 34
000
FTUS44 KLIX 010500
TAFHUM
TAF
KHUM 010520Z 0106/0206 11008KT P6SM BKN100
     FM011400 17008KT 3SM -SHRA OVC025
     FM011900 21012KT 3SM -SHRA OVC030
     FM020000 24008KT P6SM OVC030
     FM020200 25008KT P6SM OVC015
     FM020400 28011KT P6SM OVC010=

USA.gov is the U.S. government's official web portal to all federal, state and local government web resources and services.